createdAt,value
2017-08-11T00:00:24.769Z,0
2017-08-11T00:01:25.489Z,0
2017-08-11T00:02:26.211Z,0
2017-08-11T00:03:26.933Z,0
2017-08-11T00:04:27.658Z,0
2017-08-11T00:05:28.377Z,0
2017-08-11T00:06:29.101Z,0
2017-08-11T00:07:29.845Z,0
2017-08-11T00:08:30.587Z,0
2017-08-11T00:09:31.311Z,0
2017-08-11T00:10:32.034Z,0
2017-08-11T00:11:32.757Z,0
2017-08-11T00:12:33.482Z,0
2017-08-11T00:13:34.203Z,0
2017-08-11T00:14:34.949Z,0
2017-08-11T00:15:35.703Z,0
2017-08-11T00:16:36.431Z,0
2017-08-11T00:17:37.155Z,0
2017-08-11T00:18:37.881Z,0
2017-08-11T00:19:38.602Z,0
2017-08-11T00:20:39.347Z,0
2017-08-11T00:21:40.093Z,0
2017-08-11T00:22:40.818Z,0
2017-08-11T00:23:41.562Z,0
2017-08-11T00:24:42.288Z,0
2017-08-11T00:25:43.011Z,0
2017-08-11T00:26:43.730Z,0
2017-08-11T00:27:44.452Z,0
2017-08-11T00:28:45.196Z,0
2017-08-11T00:29:45.920Z,0
2017-08-11T00:30:46.644Z,0
2017-08-11T00:31:47.387Z,0
2017-08-11T00:32:48.110Z,0
2017-08-11T00:33:48.832Z,0
2017-08-11T00:34:49.580Z,0
2017-08-11T00:35:50.301Z,0
2017-08-11T00:36:51.021Z,0
2017-08-11T00:37:51.744Z,0
2017-08-11T00:38:52.466Z,0
2017-08-11T00:39:53.187Z,0
2017-08-11T00:40:53.904Z,0
2017-08-11T00:41:54.624Z,0
2017-08-11T00:42:55.349Z,0
2017-08-11T00:43:56.071Z,0
2017-08-11T00:44:56.792Z,0
2017-08-11T00:45:57.513Z,0
2017-08-11T00:46:58.234Z,0
2017-08-11T00:47:58.980Z,0
2017-08-11T00:48:59.730Z,0
2017-08-11T00:50:00.450Z,0
2017-08-11T00:51:01.170Z,0
2017-08-11T00:52:01.894Z,0
2017-08-11T00:53:02.611Z,0
2017-08-11T00:54:03.334Z,0
2017-08-11T00:55:04.053Z,0
2017-08-11T00:56:04.797Z,0
2017-08-11T00:57:05.518Z,0
2017-08-11T00:58:06.265Z,0
2017-08-11T00:59:06.985Z,0
2017-08-11T01:00:07.710Z,0
2017-08-11T01:01:08.431Z,0
2017-08-11T01:02:09.150Z,0
2017-08-11T01:03:09.870Z,0
2017-08-11T01:04:10.614Z,0
2017-08-11T01:05:11.334Z,0
2017-08-11T01:06:12.058Z,0
2017-08-11T01:07:12.781Z,0
2017-08-11T01:08:13.501Z,0
2017-08-11T01:09:14.225Z,0
2017-08-11T01:10:14.948Z,0
2017-08-11T01:11:15.666Z,0
2017-08-11T01:12:16.388Z,0
2017-08-11T01:13:17.112Z,0
2017-08-11T01:14:17.858Z,0
2017-08-11T01:15:18.578Z,0
2017-08-11T01:16:19.299Z,0
2017-08-11T01:17:20.017Z,0
2017-08-11T01:18:20.744Z,0
2017-08-11T01:19:21.488Z,0
2017-08-11T01:20:22.208Z,0
2017-08-11T01:21:22.953Z,0
2017-08-11T01:22:23.700Z,0
2017-08-11T01:23:24.419Z,0
2017-08-11T01:24:25.136Z,0
2017-08-11T01:25:25.876Z,0
2017-08-11T01:26:26.595Z,0
2017-08-11T01:27:27.340Z,0
2017-08-11T01:28:28.083Z,0
2017-08-11T01:29:28.824Z,0
2017-08-11T01:30:29.566Z,0
2017-08-11T01:31:30.286Z,0
2017-08-11T01:32:31.008Z,0
2017-08-11T01:33:31.734Z,0
2017-08-11T01:34:32.460Z,0
2017-08-11T01:35:33.197Z,0
2017-08-11T01:36:33.917Z,0
2017-08-11T01:37:34.641Z,0
2017-08-11T01:38:35.363Z,0
2017-08-11T01:39:36.086Z,0
2017-08-11T01:40:36.809Z,0
2017-08-11T01:41:37.529Z,0
2017-08-11T01:42:38.250Z,0
2017-08-11T01:43:38.972Z,0
2017-08-11T01:44:39.716Z,0
2017-08-11T01:45:40.439Z,0
2017-08-11T01:46:41.182Z,0
2017-08-11T01:47:41.899Z,0
2017-08-11T01:48:42.625Z,0
2017-08-11T01:49:43.342Z,0
2017-08-11T01:50:44.061Z,0
2017-08-11T01:51:44.782Z,0
2017-08-11T01:52:45.505Z,0
2017-08-11T01:53:46.228Z,0
2017-08-11T01:54:46.945Z,0
2017-08-11T01:55:47.673Z,0
2017-08-11T01:56:48.414Z,0
2017-08-11T01:57:49.138Z,0
2017-08-11T01:58:49.862Z,0
2017-08-11T01:59:50.581Z,0
2017-08-11T02:00:51.307Z,0
2017-08-11T02:01:52.022Z,0
2017-08-11T02:02:52.747Z,0
2017-08-11T02:03:53.464Z,0
2017-08-11T02:04:54.185Z,0
2017-08-11T02:05:54.905Z,0
2017-08-11T02:06:55.630Z,0
2017-08-11T02:07:56.355Z,0
2017-08-11T02:08:57.076Z,0
2017-08-11T02:09:57.793Z,0
2017-08-11T02:10:58.540Z,0
2017-08-11T02:11:59.257Z,0
2017-08-11T02:12:59.983Z,0
2017-08-11T02:14:00.703Z,0
2017-08-11T02:15:01.444Z,0
2017-08-11T02:16:02.165Z,0
2017-08-11T02:17:02.891Z,0
2017-08-11T02:18:03.629Z,0
2017-08-11T02:19:04.374Z,0
2017-08-11T02:20:05.117Z,0
2017-08-11T02:21:05.840Z,0
2017-08-11T02:22:06.561Z,0
2017-08-11T02:23:07.284Z,0
2017-08-11T02:24:08.008Z,0
2017-08-11T02:25:08.731Z,0
2017-08-11T02:26:09.452Z,0
2017-08-11T02:27:10.172Z,0
2017-08-11T02:28:10.916Z,0
2017-08-11T02:29:11.638Z,0
2017-08-11T02:30:12.360Z,0
2017-08-11T02:31:13.085Z,0
2017-08-11T02:32:13.805Z,0
2017-08-11T02:33:14.547Z,0
2017-08-11T02:34:15.291Z,0
2017-08-11T02:35:16.015Z,0
2017-08-11T02:36:16.757Z,0
2017-08-11T02:37:17.475Z,0
2017-08-11T02:38:18.217Z,0
2017-08-11T02:39:18.945Z,0
2017-08-11T02:40:19.684Z,0
2017-08-11T02:41:20.408Z,0
2017-08-11T02:42:21.130Z,0
2017-08-11T02:43:21.852Z,0
2017-08-11T02:44:22.573Z,0
2017-08-11T02:45:23.297Z,0
2017-08-11T02:46:24.017Z,0
2017-08-11T02:47:24.740Z,0
2017-08-11T02:48:25.460Z,0
2017-08-11T02:49:26.179Z,0
2017-08-11T02:50:26.903Z,0
2017-08-11T02:51:27.622Z,0
2017-08-11T02:52:28.345Z,0
2017-08-11T02:53:29.086Z,0
2017-08-11T02:54:29.809Z,0
2017-08-11T02:55:30.534Z,0
2017-08-11T02:56:31.276Z,0
2017-08-11T02:57:32.020Z,0
2017-08-11T02:58:32.740Z,0
2017-08-11T02:59:33.463Z,0
2017-08-11T03:00:34.181Z,0
2017-08-11T03:01:34.904Z,0
2017-08-11T03:02:35.627Z,0
2017-08-11T03:03:36.349Z,0
2017-08-11T03:04:37.074Z,0
2017-08-11T03:05:37.790Z,0
2017-08-11T03:06:38.511Z,0
2017-08-11T03:07:39.235Z,0
2017-08-11T03:08:39.955Z,0
2017-08-11T03:09:40.677Z,0
2017-08-11T03:10:41.419Z,0
2017-08-11T03:11:42.142Z,0
2017-08-11T03:12:42.864Z,0
2017-08-11T03:13:43.607Z,0
2017-08-11T03:14:44.329Z,0
2017-08-11T03:15:45.050Z,0
2017-08-11T03:16:45.794Z,0
2017-08-11T03:17:46.518Z,0
2017-08-11T03:18:47.235Z,0
2017-08-11T03:19:47.954Z,0
2017-08-11T03:20:48.677Z,0
2017-08-11T03:21:49.398Z,0
2017-08-11T03:22:50.121Z,0
2017-08-11T03:23:50.843Z,0
2017-08-11T03:24:51.562Z,0
2017-08-11T03:25:52.284Z,0
2017-08-11T03:26:53.002Z,0
2017-08-11T03:27:53.723Z,0
2017-08-11T03:28:54.448Z,0
2017-08-11T03:29:55.184Z,0
2017-08-11T03:30:55.903Z,0
2017-08-11T03:31:56.622Z,0
2017-08-11T03:32:57.341Z,0
2017-08-11T03:33:58.085Z,0
2017-08-11T03:34:58.830Z,0
2017-08-11T03:35:59.552Z,0
2017-08-11T03:37:00.295Z,0
2017-08-11T03:38:01.036Z,0
2017-08-11T03:39:01.757Z,0
2017-08-11T03:40:02.472Z,0
2017-08-11T03:41:03.195Z,0
2017-08-11T03:42:03.938Z,0
2017-08-11T03:43:04.660Z,4
2017-08-11T03:44:05.378Z,4
2017-08-11T03:45:06.121Z,4
2017-08-11T03:46:06.840Z,4
2017-08-11T03:47:07.565Z,4
2017-08-11T03:48:08.284Z,4
2017-08-11T03:49:09.002Z,8
2017-08-11T03:50:09.731Z,8
2017-08-11T03:51:10.480Z,4
2017-08-11T03:52:11.224Z,8
2017-08-11T03:53:11.946Z,8
2017-08-11T03:54:12.667Z,8
2017-08-11T03:55:13.392Z,12
2017-08-11T03:56:14.115Z,12
2017-08-11T03:57:14.837Z,12
2017-08-11T03:58:15.561Z,16
2017-08-11T03:59:16.280Z,20
2017-08-11T04:00:17.005Z,16
2017-08-11T04:01:17.747Z,20
2017-08-11T04:02:18.480Z,16
2017-08-11T04:03:19.199Z,16
2017-08-11T04:04:19.925Z,20
2017-08-11T04:05:20.643Z,24
2017-08-11T04:06:21.364Z,24
2017-08-11T04:07:22.085Z,28
2017-08-11T04:08:22.845Z,28
2017-08-11T04:09:23.573Z,32
2017-08-11T04:10:24.293Z,32
2017-08-11T04:11:25.043Z,32
2017-08-11T04:12:25.782Z,36
2017-08-11T04:13:26.510Z,32
2017-08-11T04:14:27.229Z,40
2017-08-11T04:15:27.953Z,44
2017-08-11T04:16:28.673Z,48
2017-08-11T04:17:29.487Z,48
2017-08-11T04:18:30.226Z,48
2017-08-11T04:19:30.955Z,44
2017-08-11T04:20:31.696Z,48
2017-08-11T04:21:32.443Z,52
2017-08-11T04:22:33.188Z,56
2017-08-11T04:23:33.912Z,56
2017-08-11T04:24:34.631Z,64
2017-08-11T04:25:35.355Z,68
2017-08-11T04:26:36.080Z,76
2017-08-11T04:27:36.802Z,76
2017-08-11T04:28:37.545Z,76
2017-08-11T04:29:38.287Z,76
2017-08-11T04:30:39.010Z,80
2017-08-11T04:31:39.734Z,84
2017-08-11T04:32:40.454Z,92
2017-08-11T04:33:41.175Z,96
2017-08-11T04:34:41.899Z,112
2017-08-11T04:35:42.621Z,116
2017-08-11T04:36:43.366Z,120
2017-08-11T04:37:44.087Z,140
2017-08-11T04:38:44.825Z,156
2017-08-11T04:39:45.568Z,176
2017-08-11T04:40:46.291Z,204
2017-08-11T04:41:47.011Z,220
2017-08-11T04:42:47.734Z,244
2017-08-11T04:43:48.459Z,252
2017-08-11T04:44:49.184Z,272
2017-08-11T04:45:49.908Z,260
2017-08-11T04:46:50.651Z,256
2017-08-11T04:47:51.481Z,260
2017-08-11T04:48:52.204Z,268
2017-08-11T04:49:52.931Z,264
2017-08-11T04:50:53.651Z,276
2017-08-11T04:51:54.375Z,268
2017-08-11T04:52:55.119Z,292
2017-08-11T04:53:55.843Z,308
2017-08-11T04:54:56.590Z,328
2017-08-11T04:55:57.334Z,340
2017-08-11T04:56:58.059Z,356
2017-08-11T04:57:58.785Z,352
2017-08-11T04:58:59.513Z,320
2017-08-11T05:00:00.233Z,300
2017-08-11T05:01:00.961Z,300
2017-08-11T05:02:01.694Z,292
2017-08-11T05:03:02.421Z,304
2017-08-11T05:04:03.160Z,320
2017-08-11T05:05:03.889Z,336
2017-08-11T05:06:04.612Z,368
2017-08-11T05:07:05.333Z,396
2017-08-11T05:08:06.058Z,424
2017-08-11T05:09:06.809Z,456
2017-08-11T05:10:07.554Z,476
2017-08-11T05:11:08.280Z,496
2017-08-11T05:12:09.006Z,524
2017-08-11T05:13:09.748Z,548
2017-08-11T05:14:10.477Z,616
2017-08-11T05:15:11.227Z,684
2017-08-11T05:16:11.972Z,764
2017-08-11T05:17:12.718Z,820
2017-08-11T05:18:13.445Z,876
2017-08-11T05:19:14.169Z,936
2017-08-11T05:20:14.898Z,984
2017-08-11T05:21:15.641Z,1000
2017-08-11T05:22:16.385Z,1080
2017-08-11T05:23:17.110Z,1152
2017-08-11T05:24:17.858Z,1212
2017-08-11T05:25:18.608Z,1260
2017-08-11T05:26:19.334Z,1300
2017-08-11T05:27:20.058Z,1268
2017-08-11T05:28:20.785Z,1268
2017-08-11T05:29:21.512Z,1304
2017-08-11T05:30:22.241Z,1352
2017-08-11T05:31:22.989Z,1432
2017-08-11T05:32:23.717Z,1536
2017-08-11T05:33:24.468Z,1636
2017-08-11T05:34:25.195Z,1692
2017-08-11T05:35:25.929Z,1748
2017-08-11T05:36:26.669Z,1728
2017-08-11T05:37:27.395Z,1788
2017-08-11T05:38:28.143Z,1780
2017-08-11T05:39:28.869Z,1888
2017-08-11T05:40:29.659Z,2028
2017-08-11T05:41:30.386Z,2096
2017-08-11T05:42:31.114Z,2088
2017-08-11T05:43:31.837Z,2140
2017-08-11T05:44:32.561Z,2136
2017-08-11T05:45:33.307Z,2140
2017-08-11T05:46:34.035Z,2168
2017-08-11T05:47:34.763Z,2284
2017-08-11T05:48:35.514Z,2424
2017-08-11T05:49:36.239Z,2632
2017-08-11T05:50:36.970Z,2796
2017-08-11T05:51:37.694Z,2664
2017-08-11T05:52:38.420Z,2872
2017-08-11T05:53:39.144Z,2836
2017-08-11T05:54:39.869Z,2860
2017-08-11T05:55:40.600Z,2740
2017-08-11T05:56:41.326Z,2596
2017-08-11T05:57:42.051Z,2592
2017-08-11T05:58:42.778Z,2632
2017-08-11T05:59:43.514Z,2392
2017-08-11T06:00:44.231Z,2340
2017-08-11T06:01:44.953Z,2560
2017-08-11T06:02:45.679Z,2640
2017-08-11T06:03:46.407Z,2644
2017-08-11T06:04:47.129Z,2348
2017-08-11T06:05:47.854Z,2204
2017-08-11T06:06:48.602Z,2372
2017-08-11T06:07:49.328Z,2372
2017-08-11T06:08:50.052Z,2428
2017-08-11T06:09:50.783Z,2396
2017-08-11T06:10:51.518Z,2140
2017-08-11T06:11:52.240Z,2344
2017-08-11T06:12:52.964Z,2604
2017-08-11T06:13:53.692Z,2572
2017-08-11T06:14:54.439Z,2528
2017-08-11T06:15:55.162Z,2440
2017-08-11T06:16:55.889Z,2440
2017-08-11T06:17:56.616Z,2328
2017-08-11T06:18:57.369Z,2272
2017-08-11T06:19:58.092Z,2084
2017-08-11T06:20:58.820Z,2256
2017-08-11T06:21:59.546Z,2380
2017-08-11T06:23:00.268Z,2208
2017-08-11T06:24:00.999Z,1868
2017-08-11T06:25:01.725Z,2044
2017-08-11T06:26:02.451Z,1908
2017-08-11T06:27:03.177Z,1692
2017-08-11T06:28:03.901Z,1648
2017-08-11T06:29:04.627Z,1720
2017-08-11T06:30:05.351Z,1788
2017-08-11T06:31:06.074Z,1788
2017-08-11T06:32:06.802Z,1772
2017-08-11T06:33:07.527Z,1716
2017-08-11T06:34:08.256Z,1632
2017-08-11T06:35:08.981Z,1604
2017-08-11T06:36:09.710Z,1596
2017-08-11T06:37:10.437Z,1624
2017-08-11T06:38:11.159Z,1704
2017-08-11T06:39:11.890Z,1780
2017-08-11T06:40:12.619Z,1860
2017-08-11T06:41:13.345Z,1920
2017-08-11T06:42:14.072Z,1960
2017-08-11T06:43:14.794Z,1968
2017-08-11T06:44:15.519Z,1964
2017-08-11T06:45:16.247Z,1948
2017-08-11T06:46:16.969Z,1892
2017-08-11T06:47:17.699Z,1884
2017-08-11T06:48:18.420Z,1776
2017-08-11T06:49:19.171Z,1844
2017-08-11T06:50:19.923Z,2016
2017-08-11T06:51:20.644Z,2104
2017-08-11T06:52:21.367Z,2144
2017-08-11T06:53:22.095Z,2104
2017-08-11T06:54:22.820Z,2064
2017-08-11T06:55:23.547Z,2000
2017-08-11T06:56:24.271Z,1996
2017-08-11T06:57:25.021Z,2012
2017-08-11T06:58:25.766Z,2104
2017-08-11T06:59:26.490Z,2172
2017-08-11T07:00:27.218Z,2204
2017-08-11T07:01:27.966Z,2360
2017-08-11T07:02:28.691Z,2416
2017-08-11T07:03:29.414Z,2344
2017-08-11T07:04:30.144Z,2392
2017-08-11T07:05:30.869Z,2356
2017-08-11T07:06:31.619Z,2272
2017-08-11T07:07:32.369Z,2416
2017-08-11T07:08:33.095Z,2504
2017-08-11T07:09:33.819Z,2580
2017-08-11T07:10:34.547Z,2652
2017-08-11T07:11:35.273Z,2700
2017-08-11T07:12:36.001Z,2720
2017-08-11T07:13:36.726Z,2752
2017-08-11T07:14:37.455Z,2816
2017-08-11T07:15:38.179Z,2864
2017-08-11T07:16:38.907Z,2908
2017-08-11T07:17:39.632Z,2944
2017-08-11T07:18:40.360Z,3092
2017-08-11T07:19:41.082Z,3176
2017-08-11T07:20:41.811Z,3340
2017-08-11T07:21:42.542Z,3484
2017-08-11T07:22:43.269Z,3696
2017-08-11T07:23:44.001Z,3704
2017-08-11T07:24:44.728Z,3752
2017-08-11T07:25:45.456Z,3916
2017-08-11T07:26:46.182Z,3976
2017-08-11T07:27:46.910Z,3960
2017-08-11T07:28:47.659Z,3952
2017-08-11T07:29:48.386Z,4152
2017-08-11T07:30:49.113Z,4052
2017-08-11T07:31:49.838Z,4196
2017-08-11T07:32:50.570Z,4080
2017-08-11T07:33:51.301Z,4464
2017-08-11T07:34:52.049Z,4292
2017-08-11T07:35:52.778Z,4936
2017-08-11T07:36:53.508Z,5224
2017-08-11T07:37:54.261Z,5716
2017-08-11T07:38:55.008Z,6248
2017-08-11T07:39:55.737Z,6248
2017-08-11T07:40:56.470Z,6516
2017-08-11T07:41:57.225Z,6336
2017-08-11T07:42:57.948Z,6940
2017-08-11T07:43:58.680Z,6816
2017-08-11T07:44:59.412Z,6372
2017-08-11T07:46:00.160Z,6572
2017-08-11T07:47:00.890Z,6224
2017-08-11T07:48:01.614Z,6276
2017-08-11T07:49:02.342Z,5760
2017-08-11T07:50:03.071Z,5308
2017-08-11T07:51:03.822Z,5584
2017-08-11T07:52:04.550Z,5440
2017-08-11T07:53:05.277Z,5464
2017-08-11T07:54:06.010Z,5328
2017-08-11T07:55:06.761Z,5060
2017-08-11T07:56:07.490Z,5100
2017-08-11T07:57:08.215Z,4932
2017-08-11T07:58:08.966Z,5240
2017-08-11T07:59:09.690Z,4768
2017-08-11T08:00:10.421Z,5588
2017-08-11T08:01:11.152Z,5656
2017-08-11T08:02:11.901Z,6596
2017-08-11T08:03:12.628Z,6260
2017-08-11T08:04:13.376Z,5652
2017-08-11T08:05:14.107Z,6320
2017-08-11T08:06:14.858Z,5968
2017-08-11T08:07:15.588Z,5964
2017-08-11T08:08:16.318Z,5516
2017-08-11T08:09:17.047Z,5192
2017-08-11T08:10:17.797Z,4924
2017-08-11T08:11:18.524Z,5032
2017-08-11T08:12:19.250Z,4528
2017-08-11T08:13:19.976Z,4972
2017-08-11T08:14:20.702Z,5040
2017-08-11T08:15:21.438Z,5960
2017-08-11T08:16:22.183Z,6600
2017-08-11T08:17:22.914Z,6580
2017-08-11T08:18:23.640Z,5988
2017-08-11T08:19:24.394Z,6252
2017-08-11T08:20:25.123Z,7048
2017-08-11T08:21:25.872Z,6216
2017-08-11T08:22:26.600Z,5884
2017-08-11T08:23:27.329Z,6120
2017-08-11T08:24:28.058Z,6580
2017-08-11T08:25:28.784Z,6864
2017-08-11T08:26:29.511Z,7508
2017-08-11T08:27:30.243Z,7480
2017-08-11T08:28:30.969Z,6764
2017-08-11T08:29:31.697Z,8220
2017-08-11T08:30:32.445Z,9936
2017-08-11T08:31:33.175Z,8696
2017-08-11T08:32:33.906Z,8088
2017-08-11T08:33:34.636Z,7868
2017-08-11T08:34:35.362Z,8596
2017-08-11T08:35:36.090Z,9300
2017-08-11T08:36:36.840Z,9896
2017-08-11T08:37:37.574Z,11524
2017-08-11T08:38:38.322Z,12968
2017-08-11T08:39:39.053Z,11908
2017-08-11T08:40:39.807Z,9768
2017-08-11T08:41:40.530Z,8928
2017-08-11T08:42:41.263Z,9680
2017-08-11T08:43:42.016Z,11192
2017-08-11T08:44:42.749Z,11700
2017-08-11T08:45:43.480Z,11812
2017-08-11T08:46:44.210Z,12756
2017-08-11T08:47:44.943Z,14380
2017-08-11T08:48:45.671Z,12524
2017-08-11T08:49:46.403Z,11444
2017-08-11T08:50:47.131Z,9844
2017-08-11T08:51:47.860Z,9688
2017-08-11T08:52:48.589Z,8892
2017-08-11T08:53:49.318Z,7292
2017-08-11T08:54:50.050Z,8204
2017-08-11T08:55:50.774Z,8960
2017-08-11T08:56:51.504Z,8428
2017-08-11T08:57:52.236Z,7160
2017-08-11T08:58:52.964Z,5732
2017-08-11T08:59:53.713Z,5508
2017-08-11T09:00:54.445Z,5808
2017-08-11T09:01:55.174Z,7168
2017-08-11T09:02:55.902Z,13508
2017-08-11T09:03:56.633Z,11960
2017-08-11T09:04:57.363Z,9212
2017-08-11T09:05:58.098Z,9196
2017-08-11T09:06:58.831Z,10096
2017-08-11T09:07:59.562Z,8812
2017-08-11T09:09:00.289Z,10500
2017-08-11T09:10:01.020Z,8992
2017-08-11T09:11:01.749Z,7988
2017-08-11T09:12:02.487Z,7700
2017-08-11T09:13:03.216Z,8096
2017-08-11T09:14:03.947Z,9628
2017-08-11T09:15:04.671Z,9096
2017-08-11T09:16:05.422Z,9232
2017-08-11T09:17:06.173Z,9116
2017-08-11T09:18:06.904Z,7572
2017-08-11T09:19:07.635Z,6272
2017-08-11T09:20:08.383Z,6324
2017-08-11T09:21:09.116Z,6828
2017-08-11T09:22:09.847Z,7132
2017-08-11T09:23:10.579Z,8668
2017-08-11T09:24:11.305Z,7780
2017-08-11T09:25:12.042Z,7292
2017-08-11T09:26:12.765Z,7348
2017-08-11T09:27:13.492Z,7888
2017-08-11T09:28:14.225Z,8292
2017-08-11T09:29:14.954Z,8188
2017-08-11T09:30:15.687Z,8012
2017-08-11T09:31:16.434Z,7660
2017-08-11T09:32:17.186Z,7664
2017-08-11T09:33:17.919Z,7076
2017-08-11T09:34:18.652Z,6448
2017-08-11T09:35:19.401Z,5420
2017-08-11T09:36:20.128Z,6056
2017-08-11T09:37:20.864Z,6700
2017-08-11T09:38:21.591Z,6556
2017-08-11T09:39:22.342Z,6816
2017-08-11T09:40:23.076Z,6876
2017-08-11T09:41:23.830Z,6696
2017-08-11T09:42:24.582Z,6964
2017-08-11T09:43:25.311Z,6724
2017-08-11T09:44:26.043Z,6628
2017-08-11T09:45:26.769Z,6684
2017-08-11T09:46:27.500Z,7520
2017-08-11T09:47:28.227Z,7292
2017-08-11T09:48:28.957Z,8228
2017-08-11T09:49:29.682Z,7456
2017-08-11T09:50:30.417Z,6680
2017-08-11T09:51:31.147Z,7768
2017-08-11T09:52:31.872Z,7940
2017-08-11T09:53:32.605Z,7904
2017-08-11T09:54:33.357Z,7636
2017-08-11T09:55:34.090Z,8256
2017-08-11T09:56:34.814Z,8856
2017-08-11T09:57:35.545Z,9240
2017-08-11T09:58:36.273Z,8936
2017-08-11T09:59:37.005Z,8532
2017-08-11T10:00:37.756Z,8176
2017-08-11T10:01:38.485Z,7504
2017-08-11T10:02:39.215Z,7016
2017-08-11T10:03:39.941Z,6608
2017-08-11T10:04:40.674Z,6192
2017-08-11T10:05:41.404Z,5972
2017-08-11T10:06:42.132Z,5744
2017-08-11T10:07:42.862Z,5276
2017-08-11T10:08:43.612Z,4652
2017-08-11T10:09:44.339Z,4404
2017-08-11T10:10:45.069Z,4112
2017-08-11T10:11:45.800Z,4152
2017-08-11T10:12:46.527Z,4336
2017-08-11T10:13:47.258Z,4020
2017-08-11T10:14:47.986Z,4256
2017-08-11T10:15:48.736Z,4700
2017-08-11T10:16:49.464Z,4920
2017-08-11T10:17:50.194Z,5144
2017-08-11T10:18:50.941Z,5380
2017-08-11T10:19:51.667Z,5456
2017-08-11T10:20:52.395Z,5488
2017-08-11T10:21:53.124Z,5524
2017-08-11T10:22:53.848Z,5696
2017-08-11T10:23:54.582Z,5928
2017-08-11T10:24:55.312Z,6200
2017-08-11T10:25:56.039Z,6408
2017-08-11T10:26:56.793Z,6456
2017-08-11T10:27:57.520Z,6512
2017-08-11T10:28:58.249Z,6804
2017-08-11T10:29:58.975Z,6908
2017-08-11T10:30:59.707Z,7612
2017-08-11T10:32:00.437Z,9732
2017-08-11T10:33:01.168Z,11792
2017-08-11T10:34:01.901Z,12944
2017-08-11T10:35:02.627Z,13296
2017-08-11T10:36:03.359Z,12404
2017-08-11T10:37:04.090Z,11200
2017-08-11T10:38:04.847Z,10332
2017-08-11T10:39:05.571Z,9400
2017-08-11T10:40:06.325Z,8072
2017-08-11T10:41:07.076Z,7116
2017-08-11T10:42:07.801Z,6484
2017-08-11T10:43:08.530Z,6192
2017-08-11T10:44:09.257Z,5912
2017-08-11T10:45:09.985Z,5600
2017-08-11T10:46:10.710Z,5528
2017-08-11T10:47:11.437Z,5152
2017-08-11T10:48:12.167Z,4668
2017-08-11T10:49:12.893Z,5640
2017-08-11T10:50:13.620Z,6260
2017-08-11T10:51:14.348Z,6876
2017-08-11T10:52:15.076Z,7280
2017-08-11T10:53:15.802Z,7996
2017-08-11T10:54:16.531Z,8552
2017-08-11T10:55:17.281Z,8900
2017-08-11T10:56:18.007Z,8692
2017-08-11T10:57:18.739Z,7876
2017-08-11T10:58:19.483Z,7828
2017-08-11T10:59:20.212Z,8008
2017-08-11T11:00:20.956Z,7548
2017-08-11T11:01:21.686Z,7596
2017-08-11T11:02:22.434Z,7676
2017-08-11T11:03:23.163Z,7084
2017-08-11T11:04:23.889Z,6016
2017-08-11T11:05:24.619Z,5492
2017-08-11T11:06:25.348Z,5904
2017-08-11T11:07:26.091Z,7228
2017-08-11T11:08:26.821Z,6752
2017-08-11T11:09:27.548Z,5988
2017-08-11T11:10:28.276Z,5128
2017-08-11T11:11:29.025Z,4344
2017-08-11T11:12:29.733Z,3792
2017-08-11T11:13:30.462Z,3904
2017-08-11T11:14:31.211Z,4196
2017-08-11T11:15:31.936Z,3336
2017-08-11T11:16:32.666Z,2680
2017-08-11T11:17:33.411Z,2952
2017-08-11T11:18:34.143Z,3824
2017-08-11T11:19:34.868Z,4364
2017-08-11T11:20:35.596Z,4288
2017-08-11T11:21:36.327Z,4228
2017-08-11T11:22:37.051Z,4760
2017-08-11T11:23:37.781Z,4488
2017-08-11T11:24:38.526Z,4128
2017-08-11T11:25:39.255Z,3784
2017-08-11T11:26:40.003Z,3532
2017-08-11T11:27:40.731Z,3204
2017-08-11T11:28:41.463Z,3048
2017-08-11T11:29:42.184Z,3100
2017-08-11T11:30:42.916Z,3144
2017-08-11T11:31:43.665Z,3192
2017-08-11T11:32:44.416Z,3240
2017-08-11T11:33:45.146Z,3336
2017-08-11T11:34:45.891Z,3356
2017-08-11T11:35:46.615Z,3452
2017-08-11T11:36:47.344Z,3612
2017-08-11T11:37:48.071Z,3992
2017-08-11T11:38:48.801Z,4380
2017-08-11T11:39:49.525Z,4844
2017-08-11T11:40:50.251Z,5040
2017-08-11T11:41:50.984Z,5276
2017-08-11T11:42:51.714Z,5492
2017-08-11T11:43:52.441Z,5896
2017-08-11T11:44:53.168Z,6556
2017-08-11T11:45:53.897Z,7336
2017-08-11T11:46:54.625Z,8360
2017-08-11T11:47:55.353Z,10420
2017-08-11T11:48:56.082Z,12476
2017-08-11T11:49:56.811Z,14216
2017-08-11T11:50:57.542Z,15432
2017-08-11T11:51:58.274Z,15336
2017-08-11T11:52:59.000Z,14532
2017-08-11T11:53:59.731Z,13708
2017-08-11T11:55:00.456Z,13380
2017-08-11T11:56:01.188Z,13432
2017-08-11T11:57:01.915Z,13536
2017-08-11T11:58:02.646Z,12516
2017-08-11T11:59:03.372Z,11260
2017-08-11T12:00:04.100Z,11936
2017-08-11T12:01:04.831Z,12996
2017-08-11T12:02:05.582Z,13940
2017-08-11T12:03:06.331Z,14896
2017-08-11T12:04:07.063Z,16392
2017-08-11T12:05:07.815Z,17824
2017-08-11T12:06:08.542Z,18176
2017-08-11T12:07:09.277Z,14588
2017-08-11T12:08:10.028Z,12844
2017-08-11T12:09:10.756Z,13524
2017-08-11T12:10:11.488Z,16704
2017-08-11T12:11:12.241Z,22240
2017-08-11T12:12:12.970Z,20800
2017-08-11T12:13:13.702Z,18560
2017-08-11T12:14:14.430Z,27616
2017-08-11T12:15:15.159Z,24768
2017-08-11T12:16:15.893Z,20512
2017-08-11T12:17:16.630Z,16596
2017-08-11T12:18:17.372Z,14528
2017-08-11T12:19:18.105Z,13244
2017-08-11T12:20:18.834Z,12048
2017-08-11T12:21:19.571Z,12824
2017-08-11T12:22:20.321Z,12576
2017-08-11T12:23:21.051Z,12000
2017-08-11T12:24:21.783Z,12104
2017-08-11T12:25:22.513Z,10804
2017-08-11T12:26:23.267Z,9224
2017-08-11T12:27:24.019Z,7912
2017-08-11T12:28:24.769Z,6636
2017-08-11T12:29:25.498Z,5996
2017-08-11T12:30:26.231Z,5792
2017-08-11T12:31:26.983Z,5776
2017-08-11T12:32:27.734Z,5812
2017-08-11T12:33:28.466Z,5952
2017-08-11T12:34:29.214Z,6064
2017-08-11T12:35:29.941Z,6656
2017-08-11T12:36:30.673Z,7032
2017-08-11T12:37:31.398Z,7028
2017-08-11T12:38:32.130Z,7056
2017-08-11T12:39:32.854Z,6868
2017-08-11T12:40:33.582Z,6088
2017-08-11T12:41:34.315Z,5056
2017-08-11T12:42:35.041Z,5120
2017-08-11T12:43:35.770Z,4348
2017-08-11T12:44:36.497Z,3488
2017-08-11T12:45:37.249Z,3420
2017-08-11T12:46:37.985Z,3236
2017-08-11T12:47:38.701Z,3112
2017-08-11T12:48:39.450Z,3284
2017-08-11T12:49:40.174Z,3436
2017-08-11T12:50:40.924Z,3208
2017-08-11T12:51:41.644Z,2804
2017-08-11T12:52:42.389Z,2636
2017-08-11T12:53:43.119Z,2288
2017-08-11T12:54:43.847Z,2268
2017-08-11T12:55:44.575Z,2532
2017-08-11T12:56:45.328Z,2924
2017-08-11T12:57:46.051Z,2828
2017-08-11T12:58:46.777Z,2836
2017-08-11T12:59:47.504Z,2744
2017-08-11T13:00:48.231Z,2532
2017-08-11T13:01:48.955Z,2292
2017-08-11T13:02:49.689Z,2124
2017-08-11T13:03:50.432Z,2036
2017-08-11T13:04:51.182Z,1896
2017-08-11T13:05:51.903Z,1812
2017-08-11T13:06:52.627Z,1744
2017-08-11T13:07:53.353Z,1800
2017-08-11T13:08:54.081Z,1944
2017-08-11T13:09:54.830Z,1932
2017-08-11T13:10:55.551Z,1848
2017-08-11T13:11:56.278Z,1844
2017-08-11T13:12:57.001Z,1868
2017-08-11T13:13:57.747Z,1904
2017-08-11T13:14:58.492Z,1952
2017-08-11T13:15:59.222Z,1900
2017-08-11T13:16:59.944Z,1804
2017-08-11T13:18:00.670Z,1648
2017-08-11T13:19:01.399Z,1648
2017-08-11T13:20:02.145Z,1756
2017-08-11T13:21:02.890Z,1808
2017-08-11T13:22:03.616Z,1852
2017-08-11T13:23:04.340Z,1964
2017-08-11T13:24:05.066Z,1972
2017-08-11T13:25:05.791Z,1892
2017-08-11T13:26:06.520Z,1964
2017-08-11T13:27:07.243Z,2144
2017-08-11T13:28:07.968Z,2232
2017-08-11T13:29:08.693Z,2364
2017-08-11T13:30:09.437Z,2496
2017-08-11T13:31:10.159Z,2480
2017-08-11T13:32:10.887Z,2444
2017-08-11T13:33:11.614Z,2336
2017-08-11T13:34:12.338Z,2256
2017-08-11T13:35:13.060Z,2260
2017-08-11T13:36:13.786Z,2408
2017-08-11T13:37:14.510Z,2604
2017-08-11T13:38:15.236Z,2592
2017-08-11T13:39:15.982Z,2336
2017-08-11T13:40:16.730Z,2252
2017-08-11T13:41:17.454Z,2100
2017-08-11T13:42:18.177Z,2016
2017-08-11T13:43:18.905Z,1956
2017-08-11T13:44:19.629Z,1888
2017-08-11T13:45:20.351Z,1824
2017-08-11T13:46:21.076Z,1680
2017-08-11T13:47:21.803Z,1588
2017-08-11T13:48:22.529Z,1656
2017-08-11T13:49:23.275Z,1760
2017-08-11T13:50:24.002Z,1796
2017-08-11T13:51:24.751Z,1884
2017-08-11T13:52:25.477Z,2084
2017-08-11T13:53:26.225Z,2260